Time;durP1;ratioP1;P1;durP2;ratioP2;P2;SDS_P1;SDS_P2;PMS_P1;PMS_P2;Temp;Humidity;BMP_temperature;BMP_pressure;BME280_temperature;BME280_humidity;BME280_pressure;Samples;Min_cycle;Max_cycle;Signal;HPM_P1;HPM_P2
2021/07/02 00:02:22;;;;;;;4.32;3.92;;;;;;;16.88;87.40;95748.59;4973790;28;20267;-84
2021/07/02 00:04:49;;;;;;;4.65;4.25;;;;;;;16.84;87.35;95752.63;4975040;28;20208;-85
2021/07/02 00:07:16;;;;;;;4.97;4.53;;;;;;;16.84;87.53;95754.44;4974424;28;20311;-85
2021/07/02 00:09:42;;;;;;;4.75;4.30;;;;;;;16.80;87.71;95754.06;4974146;28;20266;-85
2021/07/02 00:12:10;;;;;;;4.43;4.03;;;;;;;16.77;87.99;95741.47;4974097;28;20220;-85
2021/07/02 00:14:38;;;;;;;5.00;4.50;;;;;;;16.79;87.65;95736.06;4974149;28;20288;-87
2021/07/02 00:17:07;;;;;;;4.78;4.30;;;;;;;16.75;88.23;95734.88;4974628;28;20712;-86
2021/07/02 00:19:36;;;;;;;4.78;4.25;;;;;;;16.77;87.06;95740.66;4974072;28;20197;-85
2021/07/02 00:22:03;;;;;;;4.65;4.25;;;;;;;16.78;86.90;95734.47;4973646;28;20207;-85
2021/07/02 00:24:32;;;;;;;4.55;4.18;;;;;;;16.75;86.38;95740.06;4972902;28;20287;-84
2021/07/02 00:26:59;;;;;;;4.50;4.10;;;;;;;16.72;86.29;95730.94;4972274;28;20236;-86
2021/07/02 00:29:27;;;;;;;4.35;3.95;;;;;;;16.71;85.40;95736.34;4973612;28;20212;-85
2021/07/02 00:31:54;;;;;;;4.72;4.32;;;;;;;16.66;86.00;95742.16;4973781;28;20208;-84
2021/07/02 00:34:27;;;;;;;4.85;4.45;;;;;;;16.67;85.74;95733.34;4973721;28;20291;-85
2021/07/02 00:36:55;;;;;;;4.00;3.67;;;;;;;16.69;85.79;95733.94;4973177;28;20283;-85
2021/07/02 00:39:23;;;;;;;4.70;4.20;;;;;;;16.67;86.09;95725.56;4974058;28;20575;-84
2021/07/02 00:41:51;;;;;;;4.85;4.43;;;;;;;16.70;86.03;95730.34;4973569;28;20200;-84
2021/07/02 00:44:17;;;;;;;4.32;3.92;;;;;;;16.71;85.85;95733.72;4973751;28;20196;-85
2021/07/02 00:46:45;;;;;;;4.57;4.18;;;;;;;16.72;85.37;95725.72;4972774;28;20236;-83
2021/07/02 00:49:12;;;;;;;5.97;4.70;;;;;;;16.74;85.06;95723.69;4973861;28;20285;-84
2021/07/02 00:51:38;;;;;;;4.45;4.05;;;;;;;16.65;86.26;95735.34;4973127;28;20196;-85
2021/07/02 00:54:06;;;;;;;7.03;4.30;;;;;;;16.65;85.84;95729.38;4972784;28;20248;-85
2021/07/02 00:56:33;;;;;;;4.43;3.97;;;;;;;16.66;85.67;95731.75;4972803;28;20240;-84
2021/07/02 00:59:02;;;;;;;4.75;4.32;;;;;;;16.69;85.65;95723.53;4974050;28;20634;-86
2021/07/02 01:01:29;;;;;;;4.88;4.32;;;;;;;16.72;85.70;95711.94;4973648;28;20285;-84
2021/07/02 01:03:57;;;;;;;4.63;4.10;;;;;;;16.71;85.96;95715.53;4973932;28;20232;-84
2021/07/02 01:06:24;;;;;;;4.25;3.90;;;;;;;16.65;86.54;95717.16;4974495;28;20315;-85
2021/07/02 01:08:50;;;;;;;4.53;4.10;;;;;;;16.64;86.25;95709.56;4974506;28;20207;-85
2021/07/02 01:11:17;;;;;;;4.82;4.43;;;;;;;16.67;85.98;95711.75;4974387;28;20199;-84
2021/07/02 01:13:46;;;;;;;4.80;4.38;;;;;;;16.65;86.08;95711.16;4974059;28;21032;-85
2021/07/02 01:16:14;;;;;;;5.65;4.47;;;;;;;16.65;86.11;95714.56;4976136;28;20262;-84
2021/07/02 01:18:41;;;;;;;5.40;4.20;;;;;;;16.63;86.71;95716.56;4978049;28;20229;-85
2021/07/02 01:21:12;;;;;;;5.75;5.25;;;;;;;16.59;87.10;95704.97;4977833;28;20298;-84
2021/07/02 01:23:39;;;;;;;5.10;4.60;;;;;;;16.52;88.05;95709.44;4977441;28;20200;-85
2021/07/02 01:26:06;;;;;;;5.13;4.72;;;;;;;16.55;87.88;95708.97;4978349;28;20236;-85
2021/07/02 01:28:33;;;;;;;4.68;4.22;;;;;;;16.55;87.61;95717.56;4977844;28;20279;-86
2021/07/02 01:31:00;;;;;;;7.07;4.50;;;;;;;16.51;87.69;95713.03;4978344;28;20214;-83
2021/07/02 01:33:26;;;;;;;6.10;4.80;;;;;;;16.52;87.53;95712.03;4978434;28;20676;-86
2021/07/02 01:35:53;;;;;;;4.85;4.43;;;;;;;16.53;87.64;95706.63;4978965;28;20228;-86
2021/07/02 01:38:21;;;;;;;4.60;4.20;;;;;;;16.55;87.60;95706.38;4978759;28;20323;-84
2021/07/02 01:40:48;;;;;;;7.68;4.65;;;;;;;16.55;88.37;95711.59;4978241;28;20196;-84
2021/07/02 01:43:16;;;;;;;4.72;4.22;;;;;;;16.49;89.74;95704.66;4978729;28;20204;-84
2021/07/02 01:45:43;;;;;;;4.35;3.95;;;;;;;16.53;88.84;95705.81;4978026;28;20307;-85
2021/07/02 01:48:10;;;;;;;5.15;4.10;;;;;;;16.52;88.56;95705.03;4978742;28;20228;-86
2021/07/02 01:50:38;;;;;;;4.68;4.20;;;;;;;16.54;88.96;95700.41;4978170;28;20205;-84
2021/07/02 01:53:05;;;;;;;4.90;4.40;;;;;;;16.50;89.63;95699.25;4978108;28;20212;-85
2021/07/02 01:55:33;;;;;;;4.65;4.18;;;;;;;16.50;89.48;95698.44;4977849;28;20224;-86
2021/07/02 01:58:02;;;;;;;5.00;4.50;;;;;;;16.49;89.70;95708.03;4977897;28;20230;-85
2021/07/02 02:00:28;;;;;;;6.28;4.47;;;;;;;16.52;88.58;95706.84;4977658;28;20196;-85
2021/07/02 02:02:55;;;;;;;4.45;4.05;;;;;;;16.47;88.93;95709.25;4977224;28;20204;-85
2021/07/02 02:05:22;;;;;;;5.43;4.20;;;;;;;16.42;89.60;95704.69;4977947;28;20218;-84
2021/07/02 02:07:50;;;;;;;6.03;4.53;;;;;;;16.42;89.23;95703.88;4978195;28;20224;-85
2021/07/02 02:10:20;;;;;;;4.57;4.15;;;;;;;16.29;90.52;95702.16;4978505;28;20212;-85
2021/07/02 02:12:48;;;;;;;6.13;4.40;;;;;;;16.23;90.31;95701.19;4977959;28;20287;-85
2021/07/02 02:15:15;;;;;;;5.45;4.15;;;;;;;16.11;92.13;95702.88;4978214;28;20230;-85
2021/07/02 02:17:42;;;;;;;5.10;4.60;;;;;;;16.08;92.51;95699.88;4978207;28;20247;-84
2021/07/02 02:20:12;;;;;;;4.67;4.17;;;;;;;16.13;92.11;95700.88;4978329;28;20197;-85
2021/07/02 02:22:39;;;;;;;5.28;4.03;;;;;;;16.05;92.76;95703.69;4977225;28;20684;-85
2021/07/02 02:25:07;;;;;;;5.00;4.47;;;;;;;16.06;91.55;95702.69;4958502;29;20247;-84
2021/07/02 02:27:34;;;;;;;4.40;4.00;;;;;;;16.01;92.15;95701.72;4957296;28;20225;-85
2021/07/02 02:30:02;;;;;;;5.37;4.87;;;;;;;16.02;91.97;95700.69;4959964;28;20201;-84
2021/07/02 02:32:29;;;;;;;4.83;4.43;;;;;;;15.99;92.29;95707.09;4978022;28;20668;-83
2021/07/02 02:34:55;;;;;;;4.93;4.53;;;;;;;15.89;93.80;95704.97;4978125;28;20220;-86
2021/07/02 02:37:22;;;;;;;4.88;4.47;;;;;;;15.82;94.78;95711.97;4978068;28;20290;-86
2021/07/02 02:39:48;;;;;;;7.53;4.17;;;;;;;15.90;94.06;95703.16;4977907;28;20208;-85
2021/07/02 02:42:15;;;;;;;4.82;4.32;;;;;;;15.99;92.92;95701.09;4977372;28;20208;-86
2021/07/02 02:44:41;;;;;;;5.23;4.73;;;;;;;16.00;92.40;95705.31;4978069;28;20211;-84
2021/07/02 02:47:09;;;;;;;5.27;4.77;;;;;;;15.94;93.33;95700.97;4977413;28;20228;-84
2021/07/02 02:49:36;;;;;;;5.93;4.63;;;;;;;15.93;93.59;95699.38;4977934;28;20209;-86
2021/07/02 02:52:04;;;;;;;5.90;5.13;;;;;;;15.93;93.54;95704.56;4976817;28;20304;-84
2021/07/02 02:54:30;;;;;;;6.10;4.30;;;;;;;15.99;92.44;95698.50;4977615;28;20247;-84
2021/07/02 02:57:04;;;;;;;7.13;4.30;;;;;;;15.96;93.03;95702.34;4976387;28;20240;-85
2021/07/02 02:59:35;;;;;;;5.43;4.93;;;;;;;15.88;93.68;95712.97;4978563;28;20195;-84
2021/07/02 03:02:02;;;;;;;5.00;4.43;;;;;;;15.91;93.45;95712.56;4977154;28;20215;-84
2021/07/02 03:04:30;;;;;;;5.65;5.10;;;;;;;15.86;93.68;95714.97;4977747;28;20208;-86
2021/07/02 03:06:57;;;;;;;5.78;5.03;;;;;;;15.94;93.22;95706.16;4977629;28;20230;-86
2021/07/02 03:09:24;;;;;;;5.90;4.70;;;;;;;15.97;92.78;95708.34;4977713;28;20200;-83
2021/07/02 03:11:52;;;;;;;5.38;4.88;;;;;;;16.03;91.80;95708.28;4977131;28;20208;-86
2021/07/02 03:14:19;;;;;;;5.70;5.20;;;;;;;16.03;91.96;95712.69;4977367;28;20211;-86
2021/07/02 03:16:46;;;;;;;6.97;5.18;;;;;;;16.06;91.70;95715.66;4977385;28;20228;-85
2021/07/02 03:19:12;;;;;;;4.82;4.43;;;;;;;16.09;91.19;95717.88;4977779;28;20233;-84
2021/07/02 03:21:40;;;;;;;5.97;5.38;;;;;;;16.06;91.37;95717.47;4977905;28;20207;-85
2021/07/02 03:24:07;;;;;;;5.85;5.35;;;;;;;16.06;91.71;95714.88;4977734;28;20672;-86
2021/07/02 03:26:34;;;;;;;5.60;5.10;;;;;;;16.10;91.60;95723.84;4977511;28;20232;-85
2021/07/02 03:29:01;;;;;;;5.47;4.70;;;;;;;16.12;91.53;95717.44;4977470;28;20282;-85
2021/07/02 03:31:28;;;;;;;5.53;5.03;;;;;;;16.11;91.94;95705.47;4977296;28;20239;-85
2021/07/02 03:33:54;;;;;;;6.25;4.90;;;;;;;16.14;91.59;95707.66;4976797;28;20200;-85
2021/07/02 03:36:21;;;;;;;5.20;4.80;;;;;;;16.21;91.31;95707.59;4977189;28;20246;-84
2021/07/02 03:38:49;;;;;;;7.28;5.57;;;;;;;16.24;91.46;95702.78;4975981;28;20211;-84
2021/07/02 03:41:16;;;;;;;6.28;4.80;;;;;;;16.26;91.32;95706.97;4976753;28;20202;-85
2021/07/02 03:43:42;;;;;;;5.75;5.25;;;;;;;16.25;91.16;95706.19;4976854;28;20204;-85
2021/07/02 03:46:08;;;;;;;4.85;4.35;;;;;;;16.25;91.28;95706.19;4976401;28;20211;-83
2021/07/02 03:48:35;;;;;;;6.10;5.05;;;;;;;16.26;91.50;95704.38;4976496;28;20215;-86
2021/07/02 03:51:02;;;;;;;6.03;5.43;;;;;;;16.17;92.86;95716.81;4975956;28;20204;-84
2021/07/02 03:53:29;;;;;;;7.35;5.38;;;;;;;16.22;92.36;95714.38;4975717;28;20211;-86
2021/07/02 03:55:57;;;;;;;5.88;5.38;;;;;;;16.24;91.55;95718.38;4975776;28;20260;-84
2021/07/02 03:58:23;;;;;;;5.93;5.32;;;;;;;16.23;92.14;95721.97;4975887;28;20704;-85
2021/07/02 04:00:50;;;;;;;6.35;5.68;;;;;;;16.26;91.96;95725.97;4975376;28;20204;-85
2021/07/02 04:03:16;;;;;;;6.00;5.50;;;;;;;16.24;91.89;95722.78;4975627;28;20197;-84
2021/07/02 04:05:44;;;;;;;6.05;5.45;;;;;;;16.18;92.33;95718.41;4974702;28;20263;-85
2021/07/02 04:08:10;;;;;;;7.75;5.63;;;;;;;16.14;92.61;95714.66;4974598;28;20251;-85
2021/07/02 04:10:37;;;;;;;6.78;5.57;;;;;;;16.19;92.62;95715.59;4976940;28;20238;-86
2021/07/02 04:13:05;;;;;;;5.60;5.03;;;;;;;16.19;93.71;95714.81;4977645;28;20215;-85
2021/07/02 04:15:32;;;;;;;8.25;6.30;;;;;;;16.16;93.18;95715.25;4977454;28;20226;-84
2021/07/02 04:17:58;;;;;;;6.50;5.82;;;;;;;16.24;92.20;95723.56;4977719;28;20255;-87
2021/07/02 04:20:25;;;;;;;5.57;5.07;;;;;;;16.32;93.07;95719.94;4977686;28;20725;-85
2021/07/02 04:22:52;;;;;;;6.47;5.63;;;;;;;16.35;91.69;95719.53;4977440;28;20235;-85
2021/07/02 04:25:21;;;;;;;6.10;5.50;;;;;;;16.41;91.17;95717.88;4978533;28;20579;-84
2021/07/02 04:27:48;;;;;;;6.28;5.60;;;;;;;16.39;91.43;95722.47;4977258;28;20231;-85
2021/07/02 04:30:17;;;;;;;5.93;5.33;;;;;;;16.40;91.61;95724.09;4977383;28;20208;-85
2021/07/02 04:32:43;;;;;;;6.00;5.40;;;;;;;16.46;91.02;95731.06;4977490;28;20247;-83
2021/07/02 04:35:10;;;;;;;6.05;5.43;;;;;;;16.49;90.67;95722.84;4974586;28;20216;-86
2021/07/02 04:37:37;;;;;;;6.72;5.70;;;;;;;16.50;90.60;95722.63;4979787;28;20224;-86
2021/07/02 04:40:05;;;;;;;6.70;5.82;;;;;;;16.52;90.08;95725.81;4978330;28;20189;-85
2021/07/02 04:42:32;;;;;;;7.47;5.75;;;;;;;16.53;91.04;95731.81;4974379;28;20200;-82
2021/07/02 04:44:58;;;;;;;6.90;5.70;;;;;;;16.58;90.86;95735.38;4974801;28;20200;-85
2021/07/02 04:47:26;;;;;;;6.40;5.80;;;;;;;16.59;91.24;95729.16;4972370;28;20251;-85
2021/07/02 04:49:53;;;;;;;6.10;5.50;;;;;;;16.56;91.12;95733.97;4974100;28;20304;-86
2021/07/02 04:52:20;;;;;;;6.50;5.80;;;;;;;16.62;90.57;95730.53;4977489;28;20204;-84
2021/07/02 04:54:48;;;;;;;6.78;5.85;;;;;;;16.69;90.19;95727.94;4976969;28;20216;-84
2021/07/02 04:57:15;;;;;;;6.97;5.47;;;;;;;16.69;90.29;95720.16;4977617;28;20235;-84
2021/07/02 04:59:43;;;;;;;6.03;5.43;;;;;;;16.73;89.48;95710.91;4973197;28;20200;-85
2021/07/02 05:02:09;;;;;;;6.97;5.85;;;;;;;16.64;90.19;95723.38;4970477;28;20211;-86
2021/07/02 05:04:37;;;;;;;6.03;5.53;;;;;;;16.67;89.87;95724.75;4978418;28;20200;-83
2021/07/02 05:07:05;;;;;;;7.05;6.32;;;;;;;16.70;89.83;95721.72;4978147;28;20220;-85
2021/07/02 05:09:31;;;;;;;6.57;5.97;;;;;;;16.66;90.00;95723.16;4977373;28;20200;-86
2021/07/02 05:11:58;;;;;;;6.82;5.90;;;;;;;16.62;91.04;95722.75;4978756;28;20218;-85
2021/07/02 05:14:24;;;;;;;7.40;6.25;;;;;;;16.70;89.95;95717.34;4977667;28;20204;-84
2021/07/02 05:16:51;;;;;;;6.50;5.90;;;;;;;16.72;89.80;95732.72;4976688;28;20220;-87
2021/07/02 05:19:17;;;;;;;6.80;5.95;;;;;;;16.78;89.44;95727.47;4975719;28;20227;-84
2021/07/02 05:21:45;;;;;;;7.18;5.95;;;;;;;16.68;90.86;95737.53;4977264;28;20247;-84
2021/07/02 05:24:12;;;;;;;6.90;6.20;;;;;;;16.69;91.07;95730.53;4977896;28;20563;-85
2021/07/02 05:26:38;;;;;;;6.93;6.15;;;;;;;16.75;90.44;95729.69;4979135;28;20224;-87
2021/07/02 05:29:05;;;;;;;8.68;6.68;;;;;;;16.80;90.20;95737.66;4979625;28;20204;-84
2021/07/02 05:31:31;;;;;;;7.55;6.32;;;;;;;16.85;90.09;95730.81;4979908;28;20668;-86
2021/07/02 05:33:58;;;;;;;6.13;5.53;;;;;;;16.86;90.64;95737.63;4979670;28;20208;-85
2021/07/02 05:36:25;;;;;;;7.63;6.93;;;;;;;16.90;89.96;95738.78;4978758;28;20360;-85
2021/07/02 05:38:52;;;;;;;7.30;6.57;;;;;;;16.90;89.44;95745.78;4978415;28;20212;-85
2021/07/02 05:41:19;;;;;;;8.60;5.82;;;;;;;16.95;89.11;95745.13;4979033;28;20201;-84
2021/07/02 05:43:46;;;;;;;7.43;6.57;;;;;;;16.93;89.60;95748.75;4976991;28;20216;-83
2021/07/02 05:46:13;;;;;;;6.63;5.93;;;;;;;17.02;89.32;95751.88;4978182;28;20273;-84
2021/07/02 05:48:40;;;;;;;8.38;6.68;;;;;;;17.06;89.08;95747.06;4978553;28;20332;-87
2021/07/02 05:51:06;;;;;;;7.13;6.43;;;;;;;17.08;89.88;95752.84;4976868;28;20327;-85
2021/07/02 05:53:36;;;;;;;7.85;5.90;;;;;;;17.17;89.41;95756.78;4975021;28;20208;-85
2021/07/02 05:56:05;;;;;;;6.82;6.22;;;;;;;17.20;88.77;95762.34;4976712;28;20266;-86
2021/07/02 05:58:31;;;;;;;9.00;6.25;;;;;;;17.25;88.47;95764.31;4976820;28;20204;-85
2021/07/02 06:00:58;;;;;;;6.75;6.05;;;;;;;17.29;88.14;95756.88;4974761;28;20205;-87
2021/07/02 06:03:28;;;;;;;6.72;6.13;;;;;;;17.26;88.44;95758.91;4981574;28;20205;-85
2021/07/02 06:05:57;;;;;;;7.00;6.30;;;;;;;17.31;88.08;95770.50;4980902;28;20203;-85
2021/07/02 06:08:25;;;;;;;9.00;6.13;;;;;;;17.33;88.23;95764.03;4981723;28;20248;-85
2021/07/02 06:11:00;;;;;;;6.82;5.95;;;;;;;17.39;87.78;95765.78;4981886;28;20215;-84
2021/07/02 06:13:32;;;;;;;6.88;6.20;;;;;;;17.44;87.35;95770.34;4982577;28;20639;-85
2021/07/02 06:16:05;;;;;;;7.95;6.40;;;;;;;17.48;86.79;95769.72;4981082;28;20235;-87
2021/07/02 06:18:35;;;;;;;21.38;17.83;;;;;;;17.53;85.93;95774.25;4980117;28;20246;-86
2021/07/02 06:21:04;;;;;;;18.35;14.60;;;;;;;17.57;86.01;95770.22;4979777;28;20223;-86
2021/07/02 06:23:41;;;;;;;6.93;6.13;;;;;;;17.60;85.22;95777.63;4980965;28;20207;-84
2021/07/02 06:26:12;;;;;;;7.07;6.13;;;;;;;17.66;85.33;95776.78;4980059;28;20200;-87
2021/07/02 06:28:48;;;;;;;6.07;5.50;;;;;;;17.69;85.28;95784.19;4979276;28;20283;-85
2021/07/02 06:31:19;;;;;;;6.60;5.70;;;;;;;17.75;85.34;95791.09;4979537;28;20210;-87
2021/07/02 06:33:59;;;;;;;7.22;5.97;;;;;;;17.74;84.14;95789.50;4981273;28;20265;-83
2021/07/02 06:36:29;;;;;;;16.45;14.75;;;;;;;17.82;83.04;95784.03;4979507;28;20220;-83
2021/07/02 06:39:33;;;;;;;11.13;10.00;;;;;;;17.82;82.15;95785.84;4981752;28;20211;-86
2021/07/02 06:42:02;;;;;;;7.50;6.35;;;;;;;17.73;79.67;95785.31;4974813;28;20551;-86
2021/07/02 06:44:34;;;;;;;6.35;5.75;;;;;;;17.73;78.58;95785.31;4978283;28;20204;-85
2021/07/02 06:47:03;;;;;;;6.18;5.57;;;;;;;17.81;80.17;95781.63;4979153;28;20231;-84
2021/07/02 06:49:34;;;;;;;6.72;6.05;;;;;;;17.81;80.65;95784.25;4979153;28;20547;-85
2021/07/02 06:52:01;;;;;;;7.85;6.00;;;;;;;17.83;78.72;95796.03;4978378;28;20235;-84
2021/07/02 06:54:28;;;;;;;5.65;5.15;;;;;;;17.80;79.77;95791.25;4973698;28;20723;-85
2021/07/02 06:57:03;;;;;;;8.35;5.30;;;;;;;17.83;77.60;95790.03;4973855;28;20236;-85
2021/07/02 06:59:32;;;;;;;7.55;5.03;;;;;;;17.82;76.70;95789.25;4980159;28;20204;-86
2021/07/02 07:02:10;;;;;;;;;;;;;;;;;;;;;
2021/07/02 07:07:29;;;;;;;5.13;4.40;;;;;;;17.85;76.25;95788.81;4975862;28;20228;-85
2021/07/02 07:09:55;;;;;;;5.95;5.00;;;;;;;17.87;74.20;95784.19;4978338;28;20236;-84
2021/07/02 07:12:22;;;;;;;5.55;4.97;;;;;;;17.95;74.57;95781.28;4975702;28;20204;-86
2021/07/02 07:14:52;;;;;;;5.22;4.63;;;;;;;18.00;73.43;95788.44;4980613;28;20278;-86
2021/07/02 07:17:19;;;;;;;7.18;6.47;;;;;;;18.13;74.41;95790.09;4979763;28;20232;-84
2021/07/02 07:19:47;;;;;;;11.02;6.40;;;;;;;18.13;71.86;95790.91;4980463;28;20215;-86
2021/07/02 07:22:31;;;;;;;7.75;6.00;;;;;;;18.22;71.88;95786.19;4980277;28;20226;-84
2021/07/02 07:24:57;;;;;;;5.57;5.07;;;;;;;18.33;72.42;95790.66;4978355;28;20204;-84
2021/07/02 07:27:27;;;;;;;5.22;4.72;;;;;;;18.20;69.06;95781.19;4979611;28;20232;-85
2021/07/02 07:29:55;;;;;;;5.68;4.95;;;;;;;18.21;70.20;95792.41;4980553;28;20208;-82
2021/07/02 07:32:24;;;;;;;4.65;4.22;;;;;;;18.19;68.37;95794.44;4979998;28;20211;-84
2021/07/02 07:34:59;;;;;;;5.55;4.53;;;;;;;18.14;67.12;95789.88;4980345;28;20196;-85
2021/07/02 07:37:27;;;;;;;4.70;4.30;;;;;;;18.19;67.51;95789.22;4959772;28;20259;-84
2021/07/02 07:39:57;;;;;;;4.95;4.40;;;;;;;18.21;67.79;95793.22;4965600;28;20719;-84
2021/07/02 07:42:23;;;;;;;4.90;4.50;;;;;;;18.21;67.63;95798.44;4978483;28;20575;-84
2021/07/02 07:45:01;;;;;;;5.47;4.70;;;;;;;18.31;66.96;95795.28;4977168;28;20698;-85
2021/07/02 07:47:27;;;;;;;5.63;4.88;;;;;;;18.47;67.59;95796.53;4972790;28;20227;-84
2021/07/02 07:49:57;;;;;;;4.60;4.20;;;;;;;18.61;67.37;95795.34;4973938;28;20200;-83
2021/07/02 07:52:37;;;;;;;8.02;4.93;;;;;;;18.67;68.98;95793.66;4973342;28;20274;-84
2021/07/02 07:55:06;;;;;;;31.55;28.33;;;;;;;18.69;68.77;95800.25;4977447;28;20290;-86
2021/07/02 07:57:38;;;;;;;6.13;5.53;;;;;;;18.65;68.20;95801.72;4968835;28;20319;-86
2021/07/02 08:00:08;;;;;;;5.57;5.07;;;;;;;18.72;67.53;95805.03;4973596;28;20204;-86
2021/07/02 08:02:34;;;;;;;4.90;4.50;;;;;;;18.96;67.13;95795.47;4976549;28;20239;-82
2021/07/02 08:05:01;;;;;;;5.10;4.63;;;;;;;18.85;65.29;95797.03;4978336;28;20635;-86
2021/07/02 08:07:27;;;;;;;5.07;4.55;;;;;;;18.69;66.04;95809.88;4978293;28;20226;-84
2021/07/02 08:09:54;;;;;;;6.43;4.82;;;;;;;18.72;67.07;95802.41;4974713;28;20204;-84
2021/07/02 08:12:23;;;;;;;5.35;4.65;;;;;;;18.73;66.76;95804.00;4977522;28;20224;-84
2021/07/02 08:14:52;;;;;;;5.18;4.40;;;;;;;18.69;66.62;95809.88;4977539;28;20203;-84
2021/07/02 08:17:23;;;;;;;4.60;4.20;;;;;;;18.77;66.11;95806.97;4976755;28;20707;-84
2021/07/02 08:19:49;;;;;;;13.55;4.70;;;;;;;18.83;66.38;95804.28;4978275;28;20233;-86
2021/07/02 08:22:16;;;;;;;4.63;4.22;;;;;;;18.88;66.61;95801.78;4978120;28;20207;-85
2021/07/02 08:24:42;;;;;;;5.72;4.03;;;;;;;18.95;67.49;95794.66;4977815;28;20212;-84
2021/07/02 08:27:12;;;;;;;4.60;4.20;;;;;;;19.00;67.82;95796.59;4979064;28;20446;-85
2021/07/02 08:29:40;;;;;;;4.60;4.20;;;;;;;19.10;67.56;95798.66;4969292;28;20256;-85
2021/07/02 08:32:09;;;;;;;5.65;4.00;;;;;;;18.99;66.30;95800.25;4966694;28;20421;-86
2021/07/02 08:34:37;;;;;;;4.65;4.25;;;;;;;18.99;65.64;95800.25;4978526;28;20204;-87
2021/07/02 08:37:04;;;;;;;4.90;4.05;;;;;;;19.03;65.85;95795.38;4978572;28;20228;-86
2021/07/02 08:39:30;;;;;;;4.78;4.38;;;;;;;19.04;64.09;95800.38;4978291;28;20288;-83
2021/07/02 08:42:08;;;;;;;4.97;4.50;;;;;;;19.02;65.24;95809.44;4978175;28;20254;-85
2021/07/02 08:44:35;;;;;;;5.25;4.78;;;;;;;18.97;65.32;95810.91;4978842;28;20208;-85
2021/07/02 08:47:03;;;;;;;9.25;8.25;;;;;;;19.01;64.91;95810.47;4977589;28;20773;-86
2021/07/02 08:49:32;;;;;;;5.95;5.32;;;;;;;19.20;64.66;95802.31;4978220;28;20204;-84
2021/07/02 08:52:03;;;;;;;4.82;4.40;;;;;;;19.28;65.01;95806.41;4977977;28;20212;-84
2021/07/02 08:54:32;;;;;;;4.55;4.15;;;;;;;19.38;64.35;95800.66;4976517;28;20200;-87
2021/07/02 08:57:01;;;;;;;5.10;4.60;;;;;;;19.56;65.56;95809.19;4977473;28;20237;-85
2021/07/02 08:59:29;;;;;;;6.97;4.32;;;;;;;19.76;65.53;95803.63;4977494;28;20196;-86
2021/07/02 09:01:57;;;;;;;5.50;5.00;;;;;;;20.02;62.69;95804.94;4976378;28;20210;-85
2021/07/02 09:04:25;;;;;;;5.65;4.85;;;;;;;20.25;61.27;95798.88;4977351;28;20283;-85
2021/07/02 09:07:05;;;;;;;5.32;4.82;;;;;;;20.43;59.14;95805.78;4976443;28;20228;-82
2021/07/02 09:09:54;;;;;;;8.07;5.28;;;;;;;20.27;59.00;95802.84;4977732;28;20214;-84
2021/07/02 09:12:21;;;;;;;5.97;4.65;;;;;;;20.23;59.91;95806.94;4977068;28;20211;-83
2021/07/02 09:15:06;;;;;;;11.00;8.38;;;;;;;20.15;60.55;95809.16;4977811;28;20203;-82
2021/07/02 09:17:35;;;;;;;16.98;14.48;;;;;;;20.09;61.46;95804.84;4976524;28;20644;-87
2021/07/02 09:20:11;;;;;;;6.43;5.15;;;;;;;20.17;60.59;95802.66;4977327;28;20208;-83
2021/07/02 09:22:44;;;;;;;5.25;4.70;;;;;;;20.23;61.66;95806.94;4977010;28;20200;-85
2021/07/02 09:25:13;;;;;;;5.00;4.50;;;;;;;20.44;61.55;95802.16;4976967;28;20215;-84
2021/07/02 09:27:43;;;;;;;7.55;4.70;;;;;;;20.44;62.48;95808.19;4974884;28;20231;-87
2021/07/02 09:30:12;;;;;;;6.55;5.03;;;;;;;20.59;59.02;95799.84;4975104;28;20230;-86
2021/07/02 09:32:45;;;;;;;7.10;4.80;;;;;;;20.83;59.90;95800.50;4974344;28;20208;-85
2021/07/02 09:35:22;;;;;;;5.07;4.57;;;;;;;20.91;59.51;95806.19;4970325;28;20238;-85
2021/07/02 09:38:15;;;;;;;5.82;4.15;;;;;;;20.81;57.31;95794.72;4976884;28;20224;-85
2021/07/02 09:40:43;;;;;;;4.60;4.20;;;;;;;20.57;57.42;95810.53;4973329;28;20200;-86
2021/07/02 09:43:11;;;;;;;6.70;4.50;;;;;;;20.38;58.31;95808.34;4979537;28;20283;-85
2021/07/02 09:45:47;;;;;;;5.53;4.72;;;;;;;20.32;58.53;95810.81;4980497;28;20263;-86
2021/07/02 09:48:15;;;;;;;4.60;4.20;;;;;;;20.65;56.20;95802.31;4980771;28;20222;-85
2021/07/02 09:50:44;;;;;;;5.53;3.90;;;;;;;21.11;56.76;95794.47;4980410;28;20204;-85
2021/07/02 09:53:12;;;;;;;5.15;4.60;;;;;;;21.52;56.32;95803.78;4977604;28;20203;-83
2021/07/02 09:55:44;;;;;;;4.40;4.00;;;;;;;21.73;53.34;95794.38;4976865;28;20762;-84
2021/07/02 09:58:14;;;;;;;4.53;3.83;;;;;;;21.83;51.72;95805.78;4977026;28;20740;-83
2021/07/02 10:00:59;;;;;;;;;;;;;;;;;;;;;
2021/07/02 10:03:34;;;;;;;4.53;3.67;;;;;;;21.80;50.04;95798.41;4979202;28;20204;-85
2021/07/02 10:06:02;;;;;;;6.63;4.00;;;;;;;21.85;53.12;95800.31;4979967;28;20227;-87
2021/07/02 10:08:31;;;;;;;6.70;4.38;;;;;;;21.46;54.99;95804.72;4979484;28;20283;-86
2021/07/02 10:11:00;;;;;;;4.75;4.18;;;;;;;21.65;54.48;95790.34;4979794;28;20204;-85
2021/07/02 10:13:29;;;;;;;5.55;4.20;;;;;;;21.53;54.49;95800.94;4979940;28;20206;-86
2021/07/02 10:15:59;;;;;;;4.38;4.07;;;;;;;21.38;55.29;95793.59;4980246;28;20214;-87
2021/07/02 10:18:28;;;;;;;4.68;4.28;;;;;;;21.31;57.28;95798.22;4979573;28;20255;-83
2021/07/02 10:20:55;;;;;;;6.43;4.13;;;;;;;21.40;54.94;95798.59;4980279;28;20208;-85
2021/07/02 10:23:26;;;;;;;4.00;3.63;;;;;;;21.47;54.09;95790.59;4979752;28;20200;-87
2021/07/02 10:25:56;;;;;;;5.80;4.03;;;;;;;21.47;53.62;95790.59;4979606;28;20208;-83
2021/07/02 10:28:23;;;;;;;4.32;3.92;;;;;;;21.40;53.32;95797.81;4979214;28;20770;-86
2021/07/02 10:30:51;;;;;;;4.00;3.70;;;;;;;21.24;54.80;95797.59;4979337;28;20212;-85
2021/07/02 10:33:19;;;;;;;3.90;3.60;;;;;;;21.15;54.46;95804.22;4980332;28;20710;-84
2021/07/02 10:35:52;;;;;;;3.95;3.65;;;;;;;20.98;54.62;95814.66;4979579;28;20710;-84
2021/07/02 10:38:21;;;;;;;4.30;3.90;;;;;;;21.16;53.21;95797.16;4979037;28;20232;-84
2021/07/02 10:40:48;;;;;;;4.05;3.65;;;;;;;21.46;52.16;95799.50;4979240;28;20219;-85
2021/07/02 10:43:18;;;;;;;8.57;4.07;;;;;;;21.78;51.20;95797.06;4979321;28;20680;-84
2021/07/02 10:46:25;;;;;;;5.38;4.00;;;;;;;22.11;49.83;95791.00;4977295;28;20231;-86
2021/07/02 10:48:54;;;;;;;6.25;3.72;;;;;;;22.41;52.09;95793.97;4971515;28;20204;-85
2021/07/02 10:51:41;;;;;;;5.43;3.50;;;;;;;22.80;48.82;95793.88;4974183;28;20226;-86
2021/07/02 10:54:33;;;;;;;4.55;3.50;;;;;;;23.05;49.04;95787.03;4974194;28;20200;-85
2021/07/02 10:57:19;;;;;;;6.10;4.20;;;;;;;22.58;49.09;95791.25;4973492;28;20243;-85
2021/07/02 11:00:06;;;;;;;6.10;5.50;;;;;;;22.19;50.31;95788.72;4975849;28;20206;-82
2021/07/02 11:02:33;;;;;;;4.18;3.78;;;;;;;22.20;49.96;95798.16;4977892;28;20242;-84
2021/07/02 11:05:01;;;;;;;3.75;3.45;;;;;;;22.46;49.78;95793.22;4979597;28;20203;-84
2021/07/02 11:07:42;;;;;;;4.00;3.70;;;;;;;22.81;49.07;95792.84;4978351;28;20238;-85
2021/07/02 11:10:10;;;;;;;6.78;3.85;;;;;;;22.95;48.03;95784.28;4978968;28;20671;-85
2021/07/02 11:12:38;;;;;;;3.65;3.33;;;;;;;23.13;48.48;95791.00;4977708;28;20243;-86
2021/07/02 11:15:11;;;;;;;4.97;3.30;;;;;;;23.39;46.28;95786.75;4979252;28;20263;-83
2021/07/02 11:17:39;;;;;;;3.95;3.50;;;;;;;23.57;47.05;95780.34;4976987;28;20594;-84
2021/07/02 11:20:28;;;;;;;7.88;7.18;;;;;;;23.35;45.46;95786.47;4978303;28;20203;-84
2021/07/02 11:23:13;;;;;;;3.80;3.38;;;;;;;22.89;45.23;95787.94;4977375;28;20207;-84
2021/07/02 11:25:45;;;;;;;3.28;3.08;;;;;;;22.93;45.33;95786.38;4977195;28;20204;-87
2021/07/02 11:28:15;;;;;;;3.65;3.35;;;;;;;23.17;44.42;95791.31;4977087;28;20272;-85
2021/07/02 11:30:44;;;;;;;3.70;3.40;;;;;;;23.37;45.30;95788.84;4978180;28;20239;-85
2021/07/02 11:33:19;;;;;;;3.75;3.45;;;;;;;23.66;44.84;95790.16;4976338;28;20204;-83
2021/07/02 11:35:47;;;;;;;4.00;3.30;;;;;;;23.84;45.92;95780.25;4977955;28;20208;-86
2021/07/02 11:38:18;;;;;;;5.32;3.25;;;;;;;23.98;44.46;95789.25;4976234;28;20236;-85
2021/07/02 11:40:50;;;;;;;4.32;3.72;;;;;;;24.07;43.12;95788.50;4976585;28;20219;-84
2021/07/02 11:43:18;;;;;;;3.70;3.40;;;;;;;24.19;42.92;95800.69;4975540;28;20562;-84
2021/07/02 11:45:48;;;;;;;3.33;3.13;;;;;;;24.00;43.30;95787.16;4974376;28;20296;-85
2021/07/02 11:48:41;;;;;;;4.63;3.50;;;;;;;23.59;43.33;95783.50;4975915;28;20288;-84
2021/07/02 11:51:11;;;;;;;4.68;3.38;;;;;;;23.74;42.97;95791.50;4975985;28;20208;-86